sensor_id;sensor_type;location;lat;lon;timestamp;pressure;altitude;pressure_sealevel;temperature;humidity
71239;BME280;61342;51.442;7.370;2022-07-05T00:00:55;100516.19;;;19.98;56.60
71239;BME280;61342;51.442;7.370;2022-07-05T00:01:55;100520.47;;;19.97;56.77
71239;BME280;61342;51.442;7.370;2022-07-05T00:02:55;100512.16;;;19.94;56.66
71239;BME280;61342;51.442;7.370;2022-07-05T00:03:56;100527.88;;;19.91;56.74
71239;BME280;61342;51.442;7.370;2022-07-05T00:04:56;100512.31;;;19.88;56.51
71239;BME280;61342;51.442;7.370;2022-07-05T00:05:57;100514.66;;;19.82;56.39
71239;BME280;61342;51.442;7.370;2022-07-05T00:06:57;100522.63;;;19.82;57.07
71239;BME280;61342;51.442;7.370;2022-07-05T00:08:16;100515.47;;;19.75;57.03
71239;BME280;61342;51.442;7.370;2022-07-05T00:09:17;100514.72;;;19.67;57.37
71239;BME280;61342;51.442;7.370;2022-07-05T00:10:17;100516.25;;;19.68;57.69
71239;BME280;61342;51.442;7.370;2022-07-05T00:11:17;100521.13;;;19.66;57.69
71239;BME280;61342;51.442;7.370;2022-07-05T00:12:20;100526.78;;;19.64;58.06
71239;BME280;61342;51.442;7.370;2022-07-05T00:13:21;100522.88;;;19.62;58.10
71239;BME280;61342;51.442;7.370;2022-07-05T00:14:22;100522.28;;;19.63;57.88
71239;BME280;61342;51.442;7.370;2022-07-05T00:15:22;100520.94;;;19.64;57.88
71239;BME280;61342;51.442;7.370;2022-07-05T00:16:23;100524.81;;;19.67;58.40
71239;BME280;61342;51.442;7.370;2022-07-05T00:17:24;100526.56;;;19.69;58.00
71239;BME280;61342;51.442;7.370;2022-07-05T00:18:24;100520.34;;;19.73;58.10
71239;BME280;61342;51.442;7.370;2022-07-05T00:19:24;100522.47;;;19.72;57.95
71239;BME280;61342;51.442;7.370;2022-07-05T00:20:25;100528.69;;;19.76;58.14
71239;BME280;61342;51.442;7.370;2022-07-05T00:21:25;100520.34;;;19.73;57.58
71239;BME280;61342;51.442;7.370;2022-07-05T00:22:26;100526.34;;;19.75;58.39
71239;BME280;61342;51.442;7.370;2022-07-05T00:23:26;100527.53;;;19.72;58.00
71239;BME280;61342;51.442;7.370;2022-07-05T00:24:26;100526.56;;;19.69;58.14
71239;BME280;61342;51.442;7.370;2022-07-05T00:25:27;100524.81;;;19.67;58.11
71239;BME280;61342;51.442;7.370;2022-07-05T00:26:28;100517.06;;;19.62;58.12
71239;BME280;61342;51.442;7.370;2022-07-05T00:27:28;100521.31;;;19.61;58.05
71239;BME280;61342;51.442;7.370;2022-07-05T00:29:29;100525.03;;;19.54;58.78
71239;BME280;61342;51.442;7.370;2022-07-05T00:30:29;100518.81;;;19.50;58.58
71239;BME280;61342;51.442;7.370;2022-07-05T00:31:30;100524.28;;;19.46;58.15
71239;BME280;61342;51.442;7.370;2022-07-05T00:32:30;100521.75;;;19.42;58.15
71239;BME280;61342;51.442;7.370;2022-07-05T00:33:30;100519.25;;;19.39;58.09
71239;BME280;61342;51.442;7.370;2022-07-05T00:34:31;100520.22;;;19.34;58.83
71239;BME280;61342;51.442;7.370;2022-07-05T00:35:31;100520.22;;;19.34;58.49
71239;BME280;61342;51.442;7.370;2022-07-05T00:36:32;100519.41;;;19.33;58.56
71239;BME280;61342;51.442;7.370;2022-07-05T00:37:32;100514.00;;;19.30;58.88
71239;BME280;61342;51.442;7.370;2022-07-05T00:38:33;100527.59;;;19.35;58.90
71239;BME280;61342;51.442;7.370;2022-07-05T00:39:33;100526.44;;;19.38;58.80
71239;BME280;61342;51.442;7.370;2022-07-05T00:40:33;100515.34;;;19.36;58.58
71239;BME280;61342;51.442;7.370;2022-07-05T00:41:34;100523.69;;;19.40;58.46
71239;BME280;61342;51.442;7.370;2022-07-05T00:42:35;100525.47;;;19.43;58.58
71239;BME280;61342;51.442;7.370;2022-07-05T00:43:35;100523.31;;;19.43;58.77
71239;BME280;61342;51.442;7.370;2022-07-05T00:44:38;100526.22;;;19.43;58.67
71239;BME280;61342;51.442;7.370;2022-07-05T00:45:39;100527.56;;;19.42;58.50
71239;BME280;61342;51.442;7.370;2022-07-05T00:46:42;100523.69;;;19.40;58.28
71239;BME280;61342;51.442;7.370;2022-07-05T00:47:43;100523.69;;;19.40;58.58
71239;BME280;61342;51.442;7.370;2022-07-05T00:48:43;100525.63;;;19.37;58.36
71239;BME280;61342;51.442;7.370;2022-07-05T00:49:44;100517.09;;;19.32;58.73
71239;BME280;61342;51.442;7.370;2022-07-05T00:50:44;100524.88;;;19.29;58.74
71239;BME280;61342;51.442;7.370;2022-07-05T00:51:44;100533.44;;;19.27;59.08
71239;BME280;61342;51.442;7.370;2022-07-05T00:52:45;100526.63;;;19.25;59.38
71239;BME280;61342;51.442;7.370;2022-07-05T00:53:46;100515.94;;;19.20;59.47
71239;BME280;61342;51.442;7.370;2022-07-05T00:54:46;100528.19;;;19.18;59.13
71239;BME280;61342;51.442;7.370;2022-07-05T00:55:46;100515.94;;;19.12;59.40
71239;BME280;61342;51.442;7.370;2022-07-05T00:56:47;100521.94;;;19.07;59.38
71239;BME280;61342;51.442;7.370;2022-07-05T00:57:49;100520.41;;;19.06;59.75
71239;BME280;61342;51.442;7.370;2022-07-05T00:58:50;100525.63;;;19.00;59.53
71239;BME280;61342;51.442;7.370;2022-07-05T00:59:51;100522.91;;;19.02;59.74
71239;BME280;61342;51.442;7.370;2022-07-05T01:00:51;100519.78;;;19.00;59.61
71239;BME280;61342;51.442;7.370;2022-07-05T01:01:52;100526.81;;;19.05;59.87
71239;BME280;61342;51.442;7.370;2022-07-05T01:02:52;100520.19;;;19.04;60.16
71239;BME280;61342;51.442;7.370;2022-07-05T01:03:52;100519.84;;;19.08;59.80
71239;BME280;61342;51.442;7.370;2022-07-05T01:04:53;100518.66;;;19.10;59.48
71239;BME280;61342;51.442;7.370;2022-07-05T01:05:54;100519.81;;;19.15;59.76
71239;BME280;61342;51.442;7.370;2022-07-05T01:06:55;100536.16;;;19.18;59.68
71239;BME280;61342;51.442;7.370;2022-07-05T01:07:57;100527.78;;;19.14;60.22
71239;BME280;61342;51.442;7.370;2022-07-05T01:09:00;100527.03;;;19.14;59.67
71239;BME280;61342;51.442;7.370;2022-07-05T01:10:01;100529.16;;;19.13;60.07
71239;BME280;61342;51.442;7.370;2022-07-05T01:11:01;100531.88;;;19.11;59.91
71239;BME280;61342;51.442;7.370;2022-07-05T01:12:02;100532.25;;;19.08;60.35
71239;BME280;61342;51.442;7.370;2022-07-05T01:13:03;100527.59;;;19.05;60.12
71239;BME280;61342;51.442;7.370;2022-07-05T01:14:03;100529.50;;;19.03;60.15
71239;BME280;61342;51.442;7.370;2022-07-05T01:15:04;100528.34;;;18.98;60.70
71239;BME280;61342;51.442;7.370;2022-07-05T01:16:05;100522.91;;;18.95;60.68
71239;BME280;61342;51.442;7.370;2022-07-05T01:17:05;100525.41;;;18.91;60.57
71239;BME280;61342;51.442;7.370;2022-07-05T01:18:07;100528.53;;;18.85;60.72
71239;BME280;61342;51.442;7.370;2022-07-05T01:19:09;100523.84;;;18.82;60.41
71239;BME280;61342;51.442;7.370;2022-07-05T01:20:10;100533.56;;;18.77;60.40
71239;BME280;61342;51.442;7.370;2022-07-05T01:21:12;100526.94;;;18.77;60.31
71239;BME280;61342;51.442;7.370;2022-07-05T01:22:19;100526.56;;;18.73;60.69
71239;BME280;61342;51.442;7.370;2022-07-05T01:23:20;100530.25;;;18.73;61.00
71239;BME280;61342;51.442;7.370;2022-07-05T01:24:20;100531.03;;;18.74;61.06
71239;BME280;61342;51.442;7.370;2022-07-05T01:25:23;100531.41;;;18.78;61.22
71239;BME280;61342;51.442;7.370;2022-07-05T01:26:24;100527.16;;;18.79;61.20
71239;BME280;61342;51.442;7.370;2022-07-05T01:27:25;100529.50;;;18.80;61.25
71239;BME280;61342;51.442;7.370;2022-07-05T01:28:25;100529.66;;;18.82;61.55
71239;BME280;61342;51.442;7.370;2022-07-05T01:29:26;100538.41;;;18.82;61.41
71239;BME280;61342;51.442;7.370;2022-07-05T01:30:26;100533.75;;;18.79;61.05
71239;BME280;61342;51.442;7.370;2022-07-05T01:31:27;100533.16;;;18.81;61.22
71239;BME280;61342;51.442;7.370;2022-07-05T01:32:27;100527.94;;;18.79;61.52
71239;BME280;61342;51.442;7.370;2022-07-05T01:33:28;100524.03;;;18.77;61.87
71239;BME280;61342;51.442;7.370;2022-07-05T01:34:29;100528.13;;;18.74;61.84
71239;BME280;61342;51.442;7.370;2022-07-05T01:35:30;100532.97;;;18.71;61.61
71239;BME280;61342;51.442;7.370;2022-07-05T01:36:30;100531.00;;;18.66;61.76
71239;BME280;61342;51.442;7.370;2022-07-05T01:37:31;100527.69;;;18.62;61.99
71239;BME280;61342;51.442;7.370;2022-07-05T01:38:31;100529.63;;;18.60;61.79
71239;BME280;61342;51.442;7.370;2022-07-05T01:39:32;100537.19;;;18.55;61.94
71239;BME280;61342;51.442;7.370;2022-07-05T01:40:33;100534.47;;;18.50;61.92
71239;BME280;61342;51.442;7.370;2022-07-05T01:41:34;100532.91;;;18.49;62.49
71239;BME280;61342;51.442;7.370;2022-07-05T01:42:34;100533.31;;;18.46;62.17
71239;BME280;61342;51.442;7.370;2022-07-05T01:43:35;100539.50;;;18.42;62.82
71239;BME280;61342;51.442;7.370;2022-07-05T01:44:35;100537.34;;;18.43;63.14
71239;BME280;61342;51.442;7.370;2022-07-05T01:45:35;100538.16;;;18.43;63.11
71239;BME280;61342;51.442;7.370;2022-07-05T01:46:42;100531.75;;;18.45;62.81
71239;BME280;61342;51.442;7.370;2022-07-05T01:47:44;100535.63;;;18.47;63.10
71239;BME280;61342;51.442;7.370;2022-07-05T01:48:49;100532.91;;;18.49;63.08
71239;BME280;61342;51.442;7.370;2022-07-05T01:49:53;100533.72;;;18.50;62.71
71239;BME280;61342;51.442;7.370;2022-07-05T01:51:07;100535.25;;;18.50;63.21
71239;BME280;61342;51.442;7.370;2022-07-05T01:52:11;100536.22;;;18.53;62.90
71239;BME280;61342;51.442;7.370;2022-07-05T01:53:24;100539.72;;;18.51;62.64
71239;BME280;61342;51.442;7.370;2022-07-05T01:54:28;100527.31;;;18.51;62.82
71239;BME280;61342;51.442;7.370;2022-07-05T01:55:29;100533.13;;;18.51;62.77
71239;BME280;61342;51.442;7.370;2022-07-05T01:56:29;100541.88;;;18.51;63.05
71239;BME280;61342;51.442;7.370;2022-07-05T01:57:29;100529.22;;;18.49;62.82
71239;BME280;61342;51.442;7.370;2022-07-05T01:58:31;100542.22;;;18.48;62.75
71239;BME280;61342;51.442;7.370;2022-07-05T01:59:32;100543.41;;;18.45;62.77
71239;BME280;61342;51.442;7.370;2022-07-05T02:00:54;100541.22;;;18.38;63.14
71239;BME280;61342;51.442;7.370;2022-07-05T02:01:54;100546.28;;;18.37;62.91
71239;BME280;61342;51.442;7.370;2022-07-05T02:02:55;100545.28;;;18.35;63.33
71239;BME280;61342;51.442;7.370;2022-07-05T02:03:56;100539.06;;;18.31;63.42
71239;BME280;61342;51.442;7.370;2022-07-05T02:04:56;100540.00;;;18.26;63.54
71239;BME280;61342;51.442;7.370;2022-07-05T02:05:56;100535.56;;;18.25;63.91
71239;BME280;61342;51.442;7.370;2022-07-05T02:06:57;100541.97;;;18.23;63.84
71239;BME280;61342;51.442;7.370;2022-07-05T02:07:57;100510.91;;;18.18;64.03
71239;BME280;61342;51.442;7.370;2022-07-05T02:08:59;100531.28;;;18.26;63.93
71239;BME280;61342;51.442;7.370;2022-07-05T02:09:59;100536.16;;;18.31;63.84
71239;BME280;61342;51.442;7.370;2022-07-05T02:10:59;100531.31;;;18.33;63.87
71239;BME280;61342;51.442;7.370;2022-07-05T02:12:00;100526.66;;;18.38;63.65
71239;BME280;61342;51.442;7.370;2022-07-05T02:13:02;100537.16;;;18.41;63.71
71239;BME280;61342;51.442;7.370;2022-07-05T02:14:03;100527.09;;;18.42;63.78
71239;BME280;61342;51.442;7.370;2022-07-05T02:15:04;100539.13;;;18.46;63.84
71239;BME280;61342;51.442;7.370;2022-07-05T02:16:04;100525.13;;;18.44;63.40
71239;BME280;61342;51.442;7.370;2022-07-05T02:17:04;100530.41;;;18.46;63.38
71239;BME280;61342;51.442;7.370;2022-07-05T02:18:06;100525.13;;;18.44;63.27
71239;BME280;61342;51.442;7.370;2022-07-05T02:19:07;100527.09;;;18.42;63.29
71239;BME280;61342;51.442;7.370;2022-07-05T02:20:08;100517.56;;;18.41;64.02
71239;BME280;61342;51.442;7.370;2022-07-05T02:21:08;100525.53;;;18.41;63.86
71239;BME280;61342;51.442;7.370;2022-07-05T02:22:08;100532.69;;;18.40;63.44
71239;BME280;61342;51.442;7.370;2022-07-05T02:23:09;100528.03;;;18.37;63.70
71239;BME280;61342;51.442;7.370;2022-07-05T02:24:09;100520.44;;;18.34;64.00
71239;BME280;61342;51.442;7.370;2022-07-05T02:25:10;100524.72;;;18.33;63.59
71239;BME280;61342;51.442;7.370;2022-07-05T02:26:10;100528.78;;;18.30;64.02
71239;BME280;61342;51.442;7.370;2022-07-05T02:27:10;100531.28;;;18.26;63.97
71239;BME280;61342;51.442;7.370;2022-07-05T02:28:11;100536.91;;;18.24;63.68
71239;BME280;61342;51.442;7.370;2022-07-05T02:29:12;100536.69;;;18.22;64.13
71239;BME280;61342;51.442;7.370;2022-07-05T02:30:12;100530.69;;;18.20;64.06
71239;BME280;61342;51.442;7.370;2022-07-05T02:31:12;100529.13;;;18.19;64.04
71239;BME280;61342;51.442;7.370;2022-07-05T02:32:13;100519.63;;;18.18;64.10
71239;BME280;61342;51.442;7.370;2022-07-05T02:33:13;100527.19;;;18.21;64.07
71239;BME280;61342;51.442;7.370;2022-07-05T02:34:13;100528.19;;;18.24;63.80
71239;BME280;61342;51.442;7.370;2022-07-05T02:35:14;100527.25;;;18.29;64.22
71239;BME280;61342;51.442;7.370;2022-07-05T02:36:14;100530.16;;;18.29;64.17
71239;BME280;61342;51.442;7.370;2022-07-05T02:37:15;100520.44;;;18.34;64.19
71239;BME280;61342;51.442;7.370;2022-07-05T02:38:15;100519.66;;;18.33;63.94
71239;BME280;61342;51.442;7.370;2022-07-05T02:39:15;100519.09;;;18.35;63.86
71239;BME280;61342;51.442;7.370;2022-07-05T02:40:16;100519.09;;;18.35;63.67
71239;BME280;61342;51.442;7.370;2022-07-05T02:41:16;100511.13;;;18.28;64.11
71239;BME280;61342;51.442;7.370;2022-07-05T02:42:16;100522.59;;;18.33;63.77
71239;BME280;61342;51.442;7.370;2022-07-05T02:43:17;100520.44;;;18.34;63.80
71239;BME280;61342;51.442;7.370;2022-07-05T02:44:17;100517.34;;;18.32;63.93
71239;BME280;61342;51.442;7.370;2022-07-05T02:45:18;100522.75;;;18.28;63.74
71239;BME280;61342;51.442;7.370;2022-07-05T02:46:18;100525.66;;;18.28;63.85
71239;BME280;61342;51.442;7.370;2022-07-05T02:47:18;100522.34;;;18.24;63.48
71239;BME280;61342;51.442;7.370;2022-07-05T02:48:19;100520.59;;;18.21;63.88
71239;BME280;61342;51.442;7.370;2022-07-05T02:49:19;100529.13;;;18.19;63.69
71239;BME280;61342;51.442;7.370;2022-07-05T02:50:19;100529.69;;;18.17;63.95
71239;BME280;61342;51.442;7.370;2022-07-05T02:51:20;100537.41;;;18.15;64.19
71239;BME280;61342;51.442;7.370;2022-07-05T02:52:20;100524.63;;;18.10;64.05
71239;BME280;61342;51.442;7.370;2022-07-05T02:53:21;100532.34;;;18.08;64.15
71239;BME280;61342;51.442;7.370;2022-07-05T02:54:21;100535.06;;;18.06;64.06
71239;BME280;61342;51.442;7.370;2022-07-05T02:55:21;100539.13;;;18.03;63.88
71239;BME280;61342;51.442;7.370;2022-07-05T02:56:21;100533.28;;;18.03;64.16
71239;BME280;61342;51.442;7.370;2022-07-05T02:57:22;100529.03;;;18.04;64.00
71239;BME280;61342;51.442;7.370;2022-07-05T02:58:22;100532.13;;;18.06;64.09
71239;BME280;61342;51.442;7.370;2022-07-05T02:59:23;100533.13;;;18.08;63.81
71239;BME280;61342;51.442;7.370;2022-07-05T03:00:23;100534.31;;;18.13;64.15
71239;BME280;61342;51.442;7.370;2022-07-05T03:01:23;100536.06;;;18.16;64.17
71239;BME280;61342;51.442;7.370;2022-07-05T03:02:24;100532.03;;;18.19;63.88
71239;BME280;61342;51.442;7.370;2022-07-05T03:03:24;100534.19;;;18.18;64.04
71239;BME280;61342;51.442;7.370;2022-07-05T03:04:25;100533.03;;;18.21;63.83
71239;BME280;61342;51.442;7.370;2022-07-05T03:05:25;100532.25;;;18.21;64.27
71239;BME280;61342;51.442;7.370;2022-07-05T03:06:26;100544.09;;;18.23;64.21
71239;BME280;61342;51.442;7.370;2022-07-05T03:07:26;100533.78;;;18.22;64.03
71239;BME280;61342;51.442;7.370;2022-07-05T03:08:26;100538.66;;;18.19;63.90
71239;BME280;61342;51.442;7.370;2022-07-05T03:09:27;100535.53;;;18.17;63.92
71239;BME280;61342;51.442;7.370;2022-07-05T03:10:27;100541.91;;;18.16;63.57
71239;BME280;61342;51.442;7.370;2022-07-05T03:11:27;100534.09;;;18.11;64.08
71239;BME280;61342;51.442;7.370;2022-07-05T03:12:28;100537.00;;;18.11;64.16
71239;BME280;61342;51.442;7.370;2022-07-05T03:13:28;100540.28;;;18.07;63.95
71239;BME280;61342;51.442;7.370;2022-07-05T03:14:28;100541.44;;;18.04;64.24
71239;BME280;61342;51.442;7.370;2022-07-05T03:15:29;100537.38;;;18.00;63.97
71239;BME280;61342;51.442;7.370;2022-07-05T03:16:29;100547.44;;;17.99;64.34
71239;BME280;61342;51.442;7.370;2022-07-05T03:17:30;100541.22;;;17.95;64.73
71239;BME280;61342;51.442;7.370;2022-07-05T03:18:30;100534.41;;;17.92;64.92
71239;BME280;61342;51.442;7.370;2022-07-05T03:19:30;100526.78;;;17.82;64.93
71239;BME280;61342;51.442;7.370;2022-07-05T03:20:31;100539.81;;;17.89;65.11
71239;BME280;61342;51.442;7.370;2022-07-05T03:21:31;100544.66;;;17.86;64.72
71239;BME280;61342;51.442;7.370;2022-07-05T03:22:31;100541.16;;;17.88;65.05
71239;BME280;61342;51.442;7.370;2022-07-05T03:23:32;100540.41;;;17.87;65.34
71239;BME280;61342;51.442;7.370;2022-07-05T03:24:32;100536.56;;;17.92;65.28
71239;BME280;61342;51.442;7.370;2022-07-05T03:25:32;100541.22;;;17.95;65.07
71239;BME280;61342;51.442;7.370;2022-07-05T03:26:33;100536.97;;;17.96;65.08
71239;BME280;61342;51.442;7.370;2022-07-05T03:27:33;100540.28;;;18.00;64.79
71239;BME280;61342;51.442;7.370;2022-07-05T03:28:34;100536.56;;;17.99;64.87
71239;BME280;61342;51.442;7.370;2022-07-05T03:29:34;100543.19;;;18.00;64.45
71239;BME280;61342;51.442;7.370;2022-07-05T03:30:34;100543.19;;;18.00;64.82
71239;BME280;61342;51.442;7.370;2022-07-05T03:31:35;100540.06;;;17.98;64.53
71239;BME280;61342;51.442;7.370;2022-07-05T03:32:35;100542.38;;;17.92;64.81
71239;BME280;61342;51.442;7.370;2022-07-05T03:33:36;100543.31;;;17.87;64.72
71239;BME280;61342;51.442;7.370;2022-07-05T03:34:36;100549.53;;;17.91;65.03
71239;BME280;61342;51.442;7.370;2022-07-05T03:35:38;100545.06;;;17.90;64.71
71239;BME280;61342;51.442;7.370;2022-07-05T03:36:39;100557.09;;;17.87;65.31
71239;BME280;61342;51.442;7.370;2022-07-05T03:37:39;100556.66;;;17.83;65.50
71239;BME280;61342;51.442;7.370;2022-07-05T03:38:39;100545.97;;;17.78;65.45
71239;BME280;61342;51.442;7.370;2022-07-05T03:39:44;100546.69;;;17.71;65.76
71239;BME280;61342;51.442;7.370;2022-07-05T03:40:45;100552.50;;;17.71;65.74
71239;BME280;61342;51.442;7.370;2022-07-05T03:41:48;100547.66;;;17.66;65.81
71239;BME280;61342;51.442;7.370;2022-07-05T03:43:02;100554.22;;;17.66;65.79
71239;BME280;61342;51.442;7.370;2022-07-05T03:44:03;100541.34;;;17.54;65.83
71239;BME280;61342;51.442;7.370;2022-07-05T03:45:32;100555.66;;;17.52;65.68
71239;BME280;61342;51.442;7.370;2022-07-05T03:46:41;100555.66;;;17.52;66.02
71239;BME280;61342;51.442;7.370;2022-07-05T03:47:58;100544.75;;;17.38;66.14
71239;BME280;61342;51.442;7.370;2022-07-05T03:49:01;100547.44;;;17.36;66.04
71239;BME280;61342;51.442;7.370;2022-07-05T03:50:04;100550.97;;;17.42;66.07
71239;BME280;61342;51.442;7.370;2022-07-05T03:51:14;100557.56;;;17.42;66.19
71239;BME280;61342;51.442;7.370;2022-07-05T03:52:22;100566.88;;;17.48;65.94
71239;BME280;61342;51.442;7.370;2022-07-05T03:57:35;100555.47;;;17.50;65.84
71239;BME280;61342;51.442;7.370;2022-07-05T03:58:35;100561.06;;;17.48;65.82
71239;BME280;61342;51.442;7.370;2022-07-05T03:59:35;100554.28;;;17.46;66.14
71239;BME280;61342;51.442;7.370;2022-07-05T04:00:36;100556.22;;;17.43;66.51
71239;BME280;61342;51.442;7.370;2022-07-05T04:01:36;100559.31;;;17.45;66.53
71239;BME280;61342;51.442;7.370;2022-07-05T04:02:37;100553.31;;;17.43;66.43
71239;BME280;61342;51.442;7.370;2022-07-05T04:03:37;100551.75;;;17.42;66.75
71239;BME280;61342;51.442;7.370;2022-07-05T04:04:38;100567.25;;;17.45;66.61
71239;BME280;61342;51.442;7.370;2022-07-05T04:05:38;100561.66;;;17.47;66.47
71239;BME280;61342;51.442;7.370;2022-07-05T04:06:39;100559.31;;;17.45;66.68
71239;BME280;61342;51.442;7.370;2022-07-05T04:07:54;100557.34;;;17.40;66.50
71239;BME280;61342;51.442;7.370;2022-07-05T04:08:54;100551.75;;;17.42;66.80
71239;BME280;61342;51.442;7.370;2022-07-05T04:09:54;100556.22;;;17.43;67.15
71239;BME280;61342;51.442;7.370;2022-07-05T04:10:55;100545.94;;;17.42;67.15
71239;BME280;61342;51.442;7.370;2022-07-05T04:11:55;100548.63;;;17.40;67.05
71239;BME280;61342;51.442;7.370;2022-07-05T04:12:56;100556.00;;;17.41;66.77
71239;BME280;61342;51.442;7.370;2022-07-05T04:39:24;100557.09;;;16.24;68.57
71239;BME280;61342;51.442;7.370;2022-07-05T04:54:35;100568.97;;;17.00;69.18
71239;BME280;61342;51.442;7.370;2022-07-05T04:56:10;100571.19;;;17.07;68.93
71239;BME280;61342;51.442;7.370;2022-07-05T04:57:26;100569.47;;;17.11;68.83
71239;BME280;61342;51.442;7.370;2022-07-05T04:58:56;100586.97;;;17.19;68.43
71239;BME280;61342;51.442;7.370;2022-07-05T05:02:21;100572.03;;;17.15;68.48
71239;BME280;61342;51.442;7.370;2022-07-05T05:03:22;100573.59;;;17.16;68.19
71239;BME280;61342;51.442;7.370;2022-07-05T05:04:31;100580.16;;;17.16;68.24
71239;BME280;61342;51.442;7.370;2022-07-05T05:05:58;100581.16;;;17.19;68.45
71239;BME280;61342;51.442;7.370;2022-07-05T05:06:59;100579.81;;;17.20;68.27
71239;BME280;61342;51.442;7.370;2022-07-05T05:08:02;100586.31;;;17.13;68.70
71239;BME280;61342;51.442;7.370;2022-07-05T05:09:03;100575.50;;;17.13;68.50
71239;BME280;61342;51.442;7.370;2022-07-05T05:10:32;100582.44;;;17.10;68.97
71239;BME280;61342;51.442;7.370;2022-07-05T05:19:59;100595.00;;;17.26;68.69
71239;BME280;61342;51.442;7.370;2022-07-05T05:21:05;100595.84;;;17.33;68.55
71239;BME280;61342;51.442;7.370;2022-07-05T05:22:20;100594.34;;;17.40;68.48
71239;BME280;61342;51.442;7.370;2022-07-05T05:23:30;100595.53;;;17.44;68.54
71239;BME280;61342;51.442;7.370;2022-07-05T05:24:31;100606.88;;;17.55;68.31
71239;BME280;61342;51.442;7.370;2022-07-05T05:25:43;100599.84;;;17.51;67.99
71239;BME280;61342;51.442;7.370;2022-07-05T05:26:49;100598.94;;;17.56;68.05
71239;BME280;61342;51.442;7.370;2022-07-05T05:27:53;100597.00;;;17.58;67.96
71239;BME280;61342;51.442;7.370;2022-07-05T05:28:56;100601.84;;;17.56;67.75
71239;BME280;61342;51.442;7.370;2022-07-05T05:30:00;100603.06;;;17.60;68.22
71239;BME280;61342;51.442;7.370;2022-07-05T05:33:09;100603.97;;;17.55;67.75
71239;BME280;61342;51.442;7.370;2022-07-05T05:35:07;100607.66;;;17.56;67.98
71239;BME280;61342;51.442;7.370;2022-07-05T05:36:29;100614.47;;;17.58;67.87
71239;BME280;61342;51.442;7.370;2022-07-05T05:46:37;100608.44;;;17.84;67.70
71239;BME280;61342;51.442;7.370;2022-07-05T05:48:38;100616.91;;;18.02;67.38
71239;BME280;61342;51.442;7.370;2022-07-05T05:56:39;100617.91;;;18.12;67.09
71239;BME280;61342;51.442;7.370;2022-07-05T06:27:44;100630.09;;;18.89;64.18
71239;BME280;61342;51.442;7.370;2022-07-05T06:34:59;100624.69;;;18.93;64.28
71239;BME280;61342;51.442;7.370;2022-07-05T06:36:33;100622.44;;;19.06;63.95
71239;BME280;61342;51.442;7.370;2022-07-05T06:38:14;100638.75;;;19.24;64.02
71239;BME280;61342;51.442;7.370;2022-07-05T06:44:06;100636.84;;;19.64;62.68
71239;BME280;61342;51.442;7.370;2022-07-05T06:47:24;100629.44;;;19.77;61.93
71239;BME280;61342;51.442;7.370;2022-07-05T06:56:58;100643.06;;;19.97;60.37
71239;BME280;61342;51.442;7.370;2022-07-05T07:00:27;100641.50;;;20.04;59.22
71239;BME280;61342;51.442;7.370;2022-07-05T07:02:16;100641.50;;;20.11;58.69
71239;BME280;61342;51.442;7.370;2022-07-05T07:03:35;100643.19;;;20.29;58.60
71239;BME280;61342;51.442;7.370;2022-07-05T07:05:29;100653.88;;;20.41;57.97
71239;BME280;61342;51.442;7.370;2022-07-05T07:29:34;100644.03;;;21.08;55.09
71239;BME280;61342;51.442;7.370;2022-07-05T07:31:25;100631.69;;;21.17;54.69
71239;BME280;61342;51.442;7.370;2022-07-05T08:02:51;100636.13;;;21.57;51.62
71239;BME280;61342;51.442;7.370;2022-07-05T08:14:42;100646.25;;;22.21;50.51
71239;BME280;61342;51.442;7.370;2022-07-05T08:18:41;100660.00;;;22.36;50.50
71239;BME280;61342;51.442;7.370;2022-07-05T08:22:07;100661.56;;;22.37;49.86
71239;BME280;61342;51.442;7.370;2022-07-05T08:23:55;100654.91;;;22.36;50.31
71239;BME280;61342;51.442;7.370;2022-07-05T08:29:14;100650.25;;;22.33;50.42
71239;BME280;61342;51.442;7.370;2022-07-05T08:33:00;100655.78;;;22.63;49.23
71239;BME280;61342;51.442;7.370;2022-07-05T08:36:22;100645.94;;;22.68;48.67
71239;BME280;61342;51.442;7.370;2022-07-05T08:38:05;100658.50;;;22.78;49.14
71239;BME280;61342;51.442;7.370;2022-07-05T08:39:14;100649.97;;;22.72;48.93
71239;BME280;61342;51.442;7.370;2022-07-05T08:41:10;100642.41;;;22.69;48.47
71239;BME280;61342;51.442;7.370;2022-07-05T08:44:13;100645.06;;;22.75;48.63
71239;BME280;61342;51.442;7.370;2022-07-05T08:45:14;100651.28;;;22.79;48.59
71239;BME280;61342;51.442;7.370;2022-07-05T08:50:45;100648.31;;;22.96;48.67
71239;BME280;61342;51.442;7.370;2022-07-05T08:52:11;100654.88;;;23.04;48.27
71239;BME280;61342;51.442;7.370;2022-07-05T08:54:49;100659.69;;;23.09;47.24
71239;BME280;61342;51.442;7.370;2022-07-05T08:56:14;100654.88;;;23.04;47.39
71239;BME280;61342;51.442;7.370;2022-07-05T08:57:59;100639.88;;;23.00;46.95
71239;BME280;61342;51.442;7.370;2022-07-05T08:59:48;100664.00;;;23.08;47.64
71239;BME280;61342;51.442;7.370;2022-07-05T09:07:15;100633.34;;;23.18;47.03
71239;BME280;61342;51.442;7.370;2022-07-05T09:11:14;100658.00;;;23.68;46.41
71239;BME280;61342;51.442;7.370;2022-07-05T09:12:54;100656.22;;;23.81;46.20
71239;BME280;61342;51.442;7.370;2022-07-05T09:14:27;100646.69;;;23.90;45.60
71239;BME280;61342;51.442;7.370;2022-07-05T09:15:53;100631.06;;;23.88;45.86
71239;BME280;61342;51.442;7.370;2022-07-05T09:24:57;100654.38;;;23.86;45.28
71239;BME280;61342;51.442;7.370;2022-07-05T10:00:50;100640.66;;;23.26;45.70
71239;BME280;61342;51.442;7.370;2022-07-05T10:04:15;100664.47;;;23.66;45.11
71239;BME280;61342;51.442;7.370;2022-07-05T10:12:40;100660.13;;;24.39;43.10
71239;BME280;61342;51.442;7.370;2022-07-05T10:14:03;100642.91;;;24.35;42.78
71239;BME280;61342;51.442;7.370;2022-07-05T10:17:35;100644.81;;;24.40;43.04